Time;durP1;ratioP1;P1;durP2;ratioP2;P2;SDS_P1;SDS_P2;PMS_P1;PMS_P2;Temp;Humidity;BMP_temperature;BMP_pressure;BME280_temperature;BME280_humidity;BME280_pressure;Samples;Min_cycle;Max_cycle;Signal;HPM_P1;HPM_P2
2022/05/26 00:01:42;;;;;;;17.23;12.20;;;;;;;;;;768553;180;924118;-61
2022/05/26 00:04:08;;;;;;;16.77;12.13;;;;;;;;;;770400;180;919267;-60
2022/05/26 00:06:34;;;;;;;15.67;12.17;;;;;;;;;;766454;184;920721;-61
2022/05/26 00:09:00;;;;;;;16.67;11.67;;;;;;;;;;765543;182;920404;-61
2022/05/26 00:11:26;;;;;;;16.02;12.07;;;;;;;;;;765951;180;1020770;-61
2022/05/26 00:13:52;;;;;;;15.80;10.20;;;;;;;;;;768490;181;918754;-61
2022/05/26 00:16:18;;;;;;;14.23;9.57;;;;;;;;;;772083;181;918276;-61
2022/05/26 00:18:43;;;;;;;14.37;9.90;;;;;;;;;;767399;181;919072;-61
2022/05/26 00:21:09;;;;;;;14.57;10.43;;;;;;;;;;769240;181;919737;-61
2022/05/26 00:23:35;;;;;;;13.23;10.23;;;;;;;;;;764100;180;919684;-60
2022/05/26 00:26:01;;;;;;;13.68;10.20;;;;;;;;;;764461;179;919874;-60
2022/05/26 00:28:27;;;;;;;18.33;11.13;;;;;;;;;;769312;181;918726;-60
2022/05/26 00:30:53;;;;;;;12.73;10.17;;;;;;;;;;769835;179;919818;-62
2022/05/26 00:33:19;;;;;;;13.43;10.00;;;;;;;;;;762971;181;919665;-60
2022/05/26 00:35:44;;;;;;;13.50;8.63;;;;;;;;;;762869;178;918579;-60
2022/05/26 00:38:10;;;;;;;15.73;8.87;;;;;;;;;;762243;181;918262;-61
2022/05/26 00:40:36;;;;;;;11.77;9.40;;;;;;;;;;762529;181;919788;-60
2022/05/26 00:43:02;;;;;;;13.37;9.60;;;;;;;;;;770827;179;919813;-60
2022/05/26 00:45:27;;;;;;;29.00;10.40;;;;;;;;;;776364;177;918063;-60
2022/05/26 00:47:53;;;;;;;16.13;10.63;;;;;;;;;;770960;179;919397;-60
2022/05/26 00:50:21;;;;;;;41.23;13.73;;;;;;;;;;770584;180;926465;-62
2022/05/26 00:52:48;;;;;;;178.80;23.80;;;;;;;;;;779806;179;910077;-60
2022/05/26 00:55:23;;;;;;;50.60;15.40;;;;;;;;;;769514;178;919672;-60
2022/05/26 00:57:49;;;;;;;66.27;14.00;;;;;;;;;;770494;179;919176;-60
2022/05/26 01:00:16;;;;;;;70.30;12.57;;;;;;;;;;768714;177;918515;-61
2022/05/26 01:02:44;;;;;;;42.30;13.27;;;;;;;;;;769465;177;920245;-60
2022/05/26 01:05:12;;;;;;;54.97;13.57;;;;;;;;;;767107;178;919457;-61
2022/05/26 01:07:37;;;;;;;53.80;13.03;;;;;;;;;;772975;177;920335;-60
2022/05/26 01:10:03;;;;;;;64.73;13.50;;;;;;;;;;774083;178;918672;-60
2022/05/26 01:12:29;;;;;;;23.63;11.00;;;;;;;;;;775485;180;919255;-60
2022/05/26 01:14:55;;;;;;;35.63;13.40;;;;;;;;;;776184;179;977784;-60
2022/05/26 01:17:36;;;;;;;42.13;12.70;;;;;;;;;;771720;179;919283;-60
2022/05/26 01:20:16;;;;;;;30.53;13.33;;;;;;;;;;774004;177;1017576;-60
2022/05/26 01:22:43;;;;;;;56.07;13.97;;;;;;;;;;766963;181;919581;-60
2022/05/26 01:25:09;;;;;;;24.63;11.80;;;;;;;;;;767114;181;919455;-60
2022/05/26 01:27:35;;;;;;;45.10;12.40;;;;;;;;;;761573;182;919424;-60
2022/05/26 01:30:04;;;;;;;44.07;11.70;;;;;;;;;;763527;181;919156;-61
2022/05/26 01:32:32;;;;;;;77.82;13.68;;;;;;;;;;766788;180;919141;-59
2022/05/26 01:35:01;;;;;;;50.73;12.00;;;;;;;;;;772585;181;919687;-60
2022/05/26 01:37:31;;;;;;;27.20;11.50;;;;;;;;;;769248;181;919681;-60
2022/05/26 01:40:08;;;;;;;23.00;11.83;;;;;;;;;;766944;179;1021018;-60
2022/05/26 01:42:49;;;;;;;34.03;11.77;;;;;;;;;;764176;181;918894;-60
2022/05/26 01:45:15;;;;;;;21.65;10.95;;;;;;;;;;769417;180;919817;-60
2022/05/26 01:47:47;;;;;;;19.43;11.17;;;;;;;;;;769554;183;919576;-60
2022/05/26 01:50:25;;;;;;;20.37;13.33;;;;;;;;;;762964;180;919205;-60
2022/05/26 01:52:54;;;;;;;52.93;18.03;;;;;;;;;;766352;181;919282;-61
2022/05/26 01:55:21;;;;;;;89.78;19.23;;;;;;;;;;766261;181;919449;-60
2022/05/26 01:57:49;;;;;;;45.73;17.87;;;;;;;;;;765838;181;919547;-60
2022/05/26 02:00:15;;;;;;;54.70;17.47;;;;;;;;;;763901;180;1020637;-61
2022/05/26 02:02:42;;;;;;;49.93;20.03;;;;;;;;;;764072;179;1021271;-62
2022/05/26 02:05:09;;;;;;;34.63;17.83;;;;;;;;;;775451;178;919419;-60
2022/05/26 02:07:34;;;;;;;49.63;16.67;;;;;;;;;;775166;177;920003;-61
2022/05/26 02:10:00;;;;;;;67.07;19.10;;;;;;;;;;770743;177;918934;-62
2022/05/26 02:12:27;;;;;;;39.90;16.60;;;;;;;;;;766962;177;919641;-62
2022/05/26 02:14:53;;;;;;;46.42;17.00;;;;;;;;;;769673;178;917957;-61
2022/05/26 02:17:20;;;;;;;55.93;17.40;;;;;;;;;;774591;181;919513;-60
2022/05/26 02:19:47;;;;;;;42.70;15.70;;;;;;;;;;768806;177;919537;-61
2022/05/26 02:22:13;;;;;;;38.97;16.13;;;;;;;;;;765808;179;918987;-61
2022/05/26 02:24:40;;;;;;;33.92;14.65;;;;;;;;;;773156;178;918738;-61
2022/05/26 02:27:06;;;;;;;26.10;15.50;;;;;;;;;;763370;180;934528;-61
2022/05/26 02:32:04;;;;;;;24.90;16.23;;;;;;;;;;768273;178;919488;-61
2022/05/26 02:34:29;;;;;;;41.77;14.50;;;;;;;;;;773343;177;919765;-61
2022/05/26 02:36:56;;;;;;;43.67;15.53;;;;;;;;;;763010;181;919718;-61
2022/05/26 02:39:21;;;;;;;34.73;14.10;;;;;;;;;;766280;179;919328;-61
2022/05/26 02:41:47;;;;;;;40.27;16.30;;;;;;;;;;775735;181;919129;-61
2022/05/26 02:44:13;;;;;;;37.50;16.07;;;;;;;;;;773081;180;919460;-62
2022/05/26 02:46:45;;;;;;;62.03;19.03;;;;;;;;;;771907;178;920340;-61
2022/05/26 02:49:12;;;;;;;26.73;16.03;;;;;;;;;;763351;181;920246;-61
2022/05/26 02:51:39;;;;;;;28.77;15.30;;;;;;;;;;768815;181;919897;-61
2022/05/26 02:54:22;;;;;;;26.65;16.50;;;;;;;;;;766429;178;919432;-61
2022/05/26 02:56:51;;;;;;;30.73;16.13;;;;;;;;;;772181;178;919131;-61
2022/05/26 02:59:22;;;;;;;53.42;16.65;;;;;;;;;;769688;179;922341;-61
2022/05/26 03:01:48;;;;;;;44.40;15.30;;;;;;;;;;773297;180;919789;-61
2022/05/26 03:04:14;;;;;;;24.90;15.10;;;;;;;;;;772893;180;919464;-61
2022/05/26 03:06:40;;;;;;;29.80;14.57;;;;;;;;;;764430;182;919319;-61
2022/05/26 03:09:06;;;;;;;28.83;15.50;;;;;;;;;;766456;181;922730;-61
2022/05/26 03:11:32;;;;;;;19.57;13.27;;;;;;;;;;775003;177;919440;-61
2022/05/26 03:13:58;;;;;;;28.87;13.80;;;;;;;;;;768465;178;919973;-61
2022/05/26 03:16:24;;;;;;;28.33;14.13;;;;;;;;;;767867;179;919263;-61
2022/05/26 03:18:51;;;;;;;29.37;14.37;;;;;;;;;;773698;180;919111;-61
2022/05/26 03:21:15;;;;;;;30.70;13.70;;;;;;;;;;769640;177;909878;-61
2022/05/26 03:23:41;;;;;;;26.13;11.77;;;;;;;;;;767699;181;918951;-61
2022/05/26 03:26:07;;;;;;;23.13;12.93;;;;;;;;;;774921;179;919306;-60
2022/05/26 03:28:33;;;;;;;23.80;13.40;;;;;;;;;;766894;180;919961;-61
2022/05/26 03:30:59;;;;;;;21.17;11.90;;;;;;;;;;768009;179;920198;-61
2022/05/26 03:33:25;;;;;;;22.00;11.55;;;;;;;;;;764882;179;915867;-62
2022/05/26 03:40:57;;;;;;;21.33;12.60;;;;;;;;;;770055;178;909913;-61
2022/05/26 03:43:23;;;;;;;17.80;12.70;;;;;;;;;;768780;179;915559;-61
2022/05/26 03:45:49;;;;;;;17.23;12.27;;;;;;;;;;771393;179;916897;-61
2022/05/26 03:48:15;;;;;;;17.63;13.43;;;;;;;;;;767634;180;627892;-61
2022/05/26 03:50:40;;;;;;;23.57;13.63;;;;;;;;;;767927;178;609153;-61
2022/05/26 03:53:06;;;;;;;37.50;13.07;;;;;;;;;;770131;183;629273;-61
2022/05/26 03:55:32;;;;;;;25.23;14.23;;;;;;;;;;768003;178;919072;-61
2022/05/26 03:58:01;;;;;;;24.83;13.33;;;;;;;;;;763626;180;916444;-62
2022/05/26 04:00:24;;;;;;;27.63;13.20;;;;;;;;;;764842;181;921042;-62
2022/05/26 04:02:50;;;;;;;33.90;16.27;;;;;;;;;;777281;180;915389;-61
2022/05/26 04:05:16;;;;;;;30.00;15.70;;;;;;;;;;764744;179;1022975;-61
2022/05/26 04:07:41;;;;;;;25.23;13.97;;;;;;;;;;768381;179;917654;-61
2022/05/26 04:10:08;;;;;;;23.00;14.50;;;;;;;;;;778708;178;913083;-62
2022/05/26 04:12:34;;;;;;;25.90;16.33;;;;;;;;;;763894;178;1228001;-61
2022/05/26 04:14:59;;;;;;;29.13;17.13;;;;;;;;;;767358;177;913285;-62
2022/05/26 04:17:25;;;;;;;28.67;16.60;;;;;;;;;;773013;180;912005;-63
2022/05/26 04:19:51;;;;;;;30.70;17.03;;;;;;;;;;764439;181;959323;-62
2022/05/26 04:22:18;;;;;;;27.65;15.88;;;;;;;;;;769996;179;920354;-63
2022/05/26 04:24:45;;;;;;;33.93;16.93;;;;;;;;;;771176;180;629485;-61
2022/05/26 04:27:10;;;;;;;37.23;16.00;;;;;;;;;;765348;183;612861;-61
2022/05/26 04:29:36;;;;;;;39.10;19.60;;;;;;;;;;756835;185;618973;-63
2022/05/26 04:32:02;;;;;;;40.93;20.07;;;;;;;;;;756441;184;619164;-62
2022/05/26 04:34:28;;;;;;;53.53;20.97;;;;;;;;;;755301;186;619624;-62
2022/05/26 04:36:54;;;;;;;63.77;22.07;;;;;;;;;;755266;180;919731;-63
2022/05/26 04:39:20;;;;;;;54.43;22.90;;;;;;;;;;764044;181;919873;-61
2022/05/26 04:41:45;;;;;;;79.18;27.20;;;;;;;;;;771362;180;919139;-61
2022/05/26 04:44:11;;;;;;;66.90;27.10;;;;;;;;;;763112;181;919753;-66
2022/05/26 04:46:38;;;;;;;80.87;29.23;;;;;;;;;;771583;180;919767;-62
2022/05/26 04:49:03;;;;;;;98.03;32.20;;;;;;;;;;771129;180;918576;-61
2022/05/26 04:51:29;;;;;;;91.20;34.40;;;;;;;;;;775682;181;918233;-62
2022/05/26 04:53:55;;;;;;;95.17;32.00;;;;;;;;;;772749;181;922968;-62
2022/05/26 04:56:22;;;;;;;91.18;30.95;;;;;;;;;;770932;179;919318;-62
2022/05/26 04:58:47;;;;;;;85.53;32.20;;;;;;;;;;776703;179;919824;-61
2022/05/26 05:01:13;;;;;;;93.20;34.33;;;;;;;;;;769196;179;923897;-61
2022/05/26 05:03:39;;;;;;;78.83;30.60;;;;;;;;;;762870;178;915307;-61
2022/05/26 05:06:04;;;;;;;86.67;30.60;;;;;;;;;;768413;178;916970;-60
2022/05/26 05:08:30;;;;;;;77.77;33.10;;;;;;;;;;766569;180;922193;-60
2022/05/26 05:10:57;;;;;;;87.67;34.40;;;;;;;;;;767595;179;1019198;-60
2022/05/26 05:13:22;;;;;;;87.90;35.17;;;;;;;;;;772589;179;914909;-61
2022/05/26 05:15:50;;;;;;;81.83;34.57;;;;;;;;;;766363;177;919778;-61
2022/05/26 05:18:16;;;;;;;78.23;30.73;;;;;;;;;;765816;178;919948;-61
2022/05/26 05:20:41;;;;;;;82.73;29.30;;;;;;;;;;765620;178;919894;-61
2022/05/26 05:23:08;;;;;;;79.50;32.13;;;;;;;;;;773250;177;919013;-61
2022/05/26 05:25:33;;;;;;;95.73;32.43;;;;;;;;;;765990;178;918676;-61
2022/05/26 05:28:00;;;;;;;82.73;31.13;;;;;;;;;;766273;178;1020914;-61
2022/05/26 05:30:26;;;;;;;80.63;32.00;;;;;;;;;;771544;177;919922;-60
2022/05/26 05:32:56;;;;;;;69.53;30.87;;;;;;;;;;767248;178;918574;-61
2022/05/26 05:35:22;;;;;;;86.80;32.33;;;;;;;;;;771784;177;629403;-61
2022/05/26 05:37:48;;;;;;;85.90;32.33;;;;;;;;;;772411;180;918381;-61
2022/05/26 05:40:14;;;;;;;69.33;28.10;;;;;;;;;;774013;180;919968;-62
2022/05/26 05:42:41;;;;;;;70.73;29.20;;;;;;;;;;768184;180;920414;-62
2022/05/26 05:45:06;;;;;;;87.47;31.47;;;;;;;;;;769185;180;875939;-62
2022/05/26 05:47:32;;;;;;;63.93;30.00;;;;;;;;;;773364;180;918389;-62
2022/05/26 05:49:57;;;;;;;74.83;30.07;;;;;;;;;;766109;179;920295;-61
2022/05/26 05:52:23;;;;;;;70.53;29.00;;;;;;;;;;768566;179;918847;-61
2022/05/26 05:54:49;;;;;;;65.57;28.73;;;;;;;;;;771584;180;919836;-62
2022/05/26 05:57:15;;;;;;;82.37;31.70;;;;;;;;;;764242;178;1020813;-61
2022/05/26 05:59:41;;;;;;;87.23;31.33;;;;;;;;;;766818;178;919167;-61
2022/05/26 06:02:07;;;;;;;77.77;30.73;;;;;;;;;;769850;179;918466;-61
2022/05/26 06:04:41;;;;;;;71.23;30.57;;;;;;;;;;767730;181;921336;-61
2022/05/26 06:06:59;;;;;;;75.37;31.37;;;;;;;;;;765826;177;1021007;-61
2022/05/26 06:09:24;;;;;;;74.33;31.93;;;;;;;;;;764789;179;919015;-61
2022/05/26 06:11:50;;;;;;;75.90;33.30;;;;;;;;;;771519;181;919742;-62
2022/05/26 06:14:16;;;;;;;70.43;30.87;;;;;;;;;;765351;181;920624;-62
2022/05/26 06:16:42;;;;;;;98.63;34.37;;;;;;;;;;765801;180;919802;-62
2022/05/26 06:19:08;;;;;;;80.40;33.70;;;;;;;;;;772446;180;918974;-61
2022/05/26 06:21:34;;;;;;;76.87;32.10;;;;;;;;;;763502;179;919777;-62
2022/05/26 06:24:00;;;;;;;96.97;36.60;;;;;;;;;;766615;180;918860;-62
2022/05/26 06:26:25;;;;;;;92.13;36.27;;;;;;;;;;765703;180;919671;-60
2022/05/26 06:31:23;;;;;;;86.63;35.87;;;;;;;;;;764712;180;917975;-62
2022/05/26 06:38:52;;;;;;;92.60;39.57;;;;;;;;;;771737;181;1022064;-62
2022/05/26 06:43:49;;;;;;;87.73;38.10;;;;;;;;;;766266;181;918103;-63
2022/05/26 06:46:15;;;;;;;75.50;37.70;;;;;;;;;;763800;180;918924;-62
2022/05/26 06:48:41;;;;;;;82.60;37.23;;;;;;;;;;767270;179;921236;-63
2022/05/26 06:51:07;;;;;;;78.70;37.07;;;;;;;;;;769928;177;919068;-64
2022/05/26 06:53:33;;;;;;;103.90;41.17;;;;;;;;;;769118;177;918730;-63
2022/05/26 06:55:59;;;;;;;79.97;38.80;;;;;;;;;;770718;178;919515;-63
2022/05/26 06:58:26;;;;;;;72.47;40.97;;;;;;;;;;766419;178;919727;-63
2022/05/26 07:00:50;;;;;;;78.00;40.07;;;;;;;;;;767582;181;918543;-63
2022/05/26 07:03:16;;;;;;;83.97;40.17;;;;;;;;;;773717;181;909242;-62
2022/05/26 07:05:42;;;;;;;68.47;38.63;;;;;;;;;;765875;179;920064;-63
2022/05/26 07:08:08;;;;;;;65.37;37.70;;;;;;;;;;766591;179;919995;-64
2022/05/26 07:10:34;;;;;;;76.27;40.77;;;;;;;;;;770668;181;919100;-64
2022/05/26 07:13:00;;;;;;;57.53;33.13;;;;;;;;;;768376;179;920475;-64
2022/05/26 07:15:25;;;;;;;58.73;34.33;;;;;;;;;;765068;181;903474;-64
2022/05/26 07:17:51;;;;;;;56.10;36.10;;;;;;;;;;765710;179;918801;-63
2022/05/26 07:20:17;;;;;;;55.50;36.80;;;;;;;;;;773747;180;919324;-64
2022/05/26 07:22:43;;;;;;;49.43;30.20;;;;;;;;;;766832;180;918796;-64
2022/05/26 07:25:09;;;;;;;46.78;30.40;;;;;;;;;;767588;181;920367;-63
2022/05/26 07:27:35;;;;;;;36.93;26.23;;;;;;;;;;773376;181;917535;-64
2022/05/26 07:30:01;;;;;;;31.13;22.83;;;;;;;;;;767474;181;919262;-64
2022/05/26 07:32:27;;;;;;;29.53;21.67;;;;;;;;;;765790;179;920399;-64
2022/05/26 07:34:52;;;;;;;33.57;24.43;;;;;;;;;;771011;181;919709;-64
2022/05/26 07:42:22;;;;;;;23.10;18.90;;;;;;;;;;774199;180;919533;-64
2022/05/26 07:44:48;;;;;;;23.30;17.00;;;;;;;;;;769816;183;916026;-65
2022/05/26 07:47:13;;;;;;;20.00;16.03;;;;;;;;;;762815;180;918775;-65
2022/05/26 07:49:39;;;;;;;16.23;13.80;;;;;;;;;;762849;178;919697;-65
2022/05/26 07:52:06;;;;;;;16.60;12.53;;;;;;;;;;765536;181;919746;-66
2022/05/26 07:54:31;;;;;;;16.60;13.00;;;;;;;;;;775370;181;918569;-65
2022/05/26 07:56:57;;;;;;;12.17;10.87;;;;;;;;;;766787;181;919738;-64
2022/05/26 07:59:23;;;;;;;12.87;11.27;;;;;;;;;;768651;182;920528;-66
2022/05/26 08:01:49;;;;;;;12.33;10.17;;;;;;;;;;777709;178;942037;-66
2022/05/26 08:04:15;;;;;;;12.30;10.30;;;;;;;;;;771580;181;918622;-65
2022/05/26 08:06:41;;;;;;;12.90;10.48;;;;;;;;;;772265;181;918884;-64
2022/05/26 08:09:06;;;;;;;11.10;9.20;;;;;;;;;;772833;179;919159;-64
2022/05/26 08:11:32;;;;;;;9.53;8.53;;;;;;;;;;769910;179;918070;-65
2022/05/26 08:13:58;;;;;;;12.05;10.18;;;;;;;;;;767380;180;919805;-65
2022/05/26 08:16:24;;;;;;;13.50;8.90;;;;;;;;;;771583;180;919808;-66
2022/05/26 08:18:50;;;;;;;9.83;7.20;;;;;;;;;;774640;180;918452;-65
2022/05/26 08:21:17;;;;;;;10.53;9.40;;;;;;;;;;769785;179;917791;-65
2022/05/26 08:23:41;;;;;;;11.97;7.50;;;;;;;;;;768555;178;918950;-66
2022/05/26 08:26:07;;;;;;;8.63;7.73;;;;;;;;;;772884;177;918327;-65
2022/05/26 08:28:33;;;;;;;8.27;6.83;;;;;;;;;;765126;180;919050;-66
2022/05/26 08:31:00;;;;;;;7.83;6.27;;;;;;;;;;766524;179;981908;-66
2022/05/26 08:33:25;;;;;;;8.93;6.63;;;;;;;;;;772433;181;918452;-66
2022/05/26 08:38:44;;;;;;;12.87;7.10;;;;;;;;;;694703;191;656264;-86
2022/05/26 08:41:10;;;;;;;6.85;5.47;;;;;;;;;;734266;191;619746;-82
2022/05/26 08:43:36;;;;;;;9.73;5.43;;;;;;;;;;724056;191;664887;-81
2022/05/26 08:46:01;;;;;;;6.23;5.60;;;;;;;;;;728566;194;614639;-85
2022/05/26 08:48:30;;;;;;;5.90;5.07;;;;;;;;;;725424;194;624651;-83
2022/05/26 08:50:56;;;;;;;5.70;5.10;;;;;;;;;;724989;194;637556;-84
2022/05/26 08:53:22;;;;;;;8.67;5.00;;;;;;;;;;725482;194;623836;-84
2022/05/26 08:55:48;;;;;;;8.40;6.50;;;;;;;;;;721715;194;615960;-86
2022/05/26 08:58:16;;;;;;;6.20;5.33;;;;;;;;;;724260;194;849262;-85
2022/05/26 09:00:41;;;;;;;10.13;6.83;;;;;;;;;;725314;193;643673;-86
2022/05/26 09:03:26;;;;;;;6.17;5.57;;;;;;;;;;727335;192;624294;-84
2022/05/26 09:05:55;;;;;;;6.40;4.43;;;;;;;;;;725363;194;646066;-84
2022/05/26 09:13:26;;;;;;;4.60;3.73;;;;;;;;;;726807;193;631510;-85
2022/05/26 09:15:49;;;;;;;8.43;3.70;;;;;;;;;;729977;194;654396;-83
2022/05/26 09:18:16;;;;;;;5.37;4.10;;;;;;;;;;728136;192;648504;-87
2022/05/26 09:20:42;;;;;;;5.13;4.63;;;;;;;;;;726776;194;619041;-88
2022/05/26 09:23:10;;;;;;;6.70;5.13;;;;;;;;;;725033;194;618511;-85
2022/05/26 09:25:35;;;;;;;4.83;3.83;;;;;;;;;;729575;194;647937;-89
2022/05/26 09:28:02;;;;;;;5.40;4.20;;;;;;;;;;723458;194;655845;-86
2022/05/26 09:30:29;;;;;;;6.87;3.70;;;;;;;;;;725197;193;633011;-86
2022/05/26 09:32:55;;;;;;;6.43;4.30;;;;;;;;;;729756;193;624273;-84
2022/05/26 09:35:23;;;;;;;8.00;4.17;;;;;;;;;;725695;193;635870;-86
2022/05/26 09:37:48;;;;;;;4.37;3.60;;;;;;;;;;725957;194;657558;-85
2022/05/26 09:40:16;;;;;;;6.60;3.20;;;;;;;;;;723877;194;614244;-86
2022/05/26 09:42:41;;;;;;;6.63;3.43;;;;;;;;;;722083;194;668222;-84
2022/05/26 09:45:10;;;;;;;4.00;3.30;;;;;;;;;;725047;194;652540;-83
2022/05/26 09:47:34;;;;;;;5.83;2.70;;;;;;;;;;725164;193;633661;-83
2022/05/26 09:50:00;;;;;;;4.13;2.83;;;;;;;;;;728318;194;643663;-84
2022/05/26 09:52:28;;;;;;;4.00;3.07;;;;;;;;;;724073;194;675106;-83
2022/05/26 09:54:58;;;;;;;5.43;2.63;;;;;;;;;;724151;194;619038;-85
2022/05/26 09:57:23;;;;;;;3.40;2.93;;;;;;;;;;726545;193;614167;-83
2022/05/26 09:59:49;;;;;;;4.83;3.53;;;;;;;;;;728363;194;652684;-81
2022/05/26 10:02:16;;;;;;;2.90;2.50;;;;;;;;;;724788;192;624653;-84
2022/05/26 10:04:48;;;;;;;5.10;3.20;;;;;;;;;;722980;194;819166;-82
2022/05/26 10:07:20;;;;;;;4.67;3.03;;;;;;;;;;729251;194;626998;-82
2022/05/26 10:09:48;;;;;;;3.50;2.63;;;;;;;;;;728416;194;653908;-82
2022/05/26 10:12:14;;;;;;;6.77;3.43;;;;;;;;;;720862;194;777217;-83
2022/05/26 10:14:55;;;;;;;4.97;3.67;;;;;;;;;;723549;193;618955;-82
2022/05/26 10:17:27;;;;;;;7.33;3.77;;;;;;;;;;714572;193;628499;-82
2022/05/26 10:19:56;;;;;;;7.73;3.83;;;;;;;;;;726665;194;719753;-81
2022/05/26 10:22:27;;;;;;;7.93;3.83;;;;;;;;;;727007;192;625922;-83
2022/05/26 10:25:11;;;;;;;4.60;3.70;;;;;;;;;;712596;194;623113;-82
2022/05/26 10:27:39;;;;;;;6.80;4.20;;;;;;;;;;713708;194;613389;-81
2022/05/26 10:30:10;;;;;;;7.90;4.93;;;;;;;;;;723547;194;643048;-80
2022/05/26 10:32:53;;;;;;;5.40;4.43;;;;;;;;;;726334;192;649862;-80
2022/05/26 10:35:29;;;;;;;5.50;4.10;;;;;;;;;;725275;194;652695;-83
2022/05/26 10:38:11;;;;;;;5.60;3.83;;;;;;;;;;726482;194;624399;-81
2022/05/26 10:40:37;;;;;;;9.63;2.80;;;;;;;;;;724178;194;635582;-83
2022/05/26 10:43:04;;;;;;;3.50;1.97;;;;;;;;;;700920;194;2007071;-83
2022/05/26 10:45:44;;;;;;;5.00;3.23;;;;;;;;;;724226;194;701481;-84
2022/05/26 10:48:10;;;;;;;9.03;2.17;;;;;;;;;;724696;193;710789;-85
2022/05/26 10:50:51;;;;;;;3.13;1.90;;;;;;;;;;723869;194;630000;-85
2022/05/26 10:53:20;;;;;;;3.00;2.10;;;;;;;;;;722453;194;640035;-83
2022/05/26 10:55:44;;;;;;;5.00;2.33;;;;;;;;;;729497;194;632674;-83
2022/05/26 10:58:11;;;;;;;4.90;2.13;;;;;;;;;;726269;193;633055;-82
2022/05/26 11:00:37;;;;;;;3.60;2.70;;;;;;;;;;725826;193;677724;-83
2022/05/26 11:03:02;;;;;;;3.80;2.27;;;;;;;;;;734733;191;614597;-82
2022/05/26 11:05:32;;;;;;;5.33;2.10;;;;;;;;;;724074;191;623920;-83
2022/05/26 11:08:04;;;;;;;3.80;2.40;;;;;;;;;;727649;193;634593;-82
2022/05/26 11:10:40;;;;;;;4.07;2.53;;;;;;;;;;726017;193;641872;-82
2022/05/26 11:13:05;;;;;;;9.03;2.67;;;;;;;;;;725273;194;665169;-84
2022/05/26 11:18:06;;;;;;;6.77;3.07;;;;;;;;;;722007;193;634955;-82
2022/05/26 11:20:32;;;;;;;4.40;3.20;;;;;;;;;;720627;195;759281;-83
2022/05/26 11:23:02;;;;;;;5.20;2.60;;;;;;;;;;727643;195;772476;-82
2022/05/26 11:25:24;;;;;;;5.80;2.63;;;;;;;;;;724378;193;648316;-84
2022/05/26 11:27:50;;;;;;;6.30;2.30;;;;;;;;;;720758;192;626875;-82
2022/05/26 11:38:04;;;;;;;7.83;2.33;;;;;;;;;;727160;194;633347;-82
2022/05/26 11:40:31;;;;;;;5.40;2.60;;;;;;;;;;724659;194;667796;-81
2022/05/26 11:42:58;;;;;;;4.30;2.47;;;;;;;;;;725168;194;642143;-80
2022/05/26 11:45:24;;;;;;;5.70;2.60;;;;;;;;;;725837;194;635213;-82
2022/05/26 11:47:50;;;;;;;8.90;2.70;;;;;;;;;;724519;194;645135;-82
2022/05/26 11:50:21;;;;;;;6.17;3.93;;;;;;;;;;725064;194;614195;-81
2022/05/26 11:53:02;;;;;;;5.10;2.33;;;;;;;;;;726025;194;658749;-82
2022/05/26 11:55:31;;;;;;;5.53;2.23;;;;;;;;;;725486;193;735328;-81
2022/05/26 11:57:56;;;;;;;5.17;2.27;;;;;;;;;;721230;194;632041;-83
2022/05/26 12:00:38;;;;;;;5.10;2.63;;;;;;;;;;725802;194;614381;-85
2022/05/26 12:03:24;;;;;;;4.90;2.60;;;;;;;;;;726141;194;629389;-81
2022/05/26 12:05:55;;;;;;;3.17;1.90;;;;;;;;;;722517;194;816969;-82
2022/05/26 12:08:23;;;;;;;8.43;1.87;;;;;;;;;;730385;194;623316;-84
2022/05/26 12:10:51;;;;;;;3.13;1.57;;;;;;;;;;721921;193;785517;-84
2022/05/26 12:13:33;;;;;;;3.43;1.60;;;;;;;;;;725628;193;614606;-82
2022/05/26 12:16:05;;;;;;;4.03;2.00;;;;;;;;;;729009;194;613984;-82
2022/05/26 12:18:36;;;;;;;6.13;2.20;;;;;;;;;;724858;194;628062;-81
2022/05/26 12:21:08;;;;;;;4.20;2.30;;;;;;;;;;723561;194;648810;-82
2022/05/26 12:23:33;;;;;;;3.00;2.10;;;;;;;;;;721258;193;644014;-81
2022/05/26 12:26:19;;;;;;;8.27;2.10;;;;;;;;;;729291;194;621800;-82
2022/05/26 12:28:45;;;;;;;3.10;1.80;;;;;;;;;;721107;195;616445;-83
2022/05/26 12:31:11;;;;;;;4.37;2.13;;;;;;;;;;722553;193;630862;-85
2022/05/26 12:33:55;;;;;;;3.62;1.90;;;;;;;;;;721970;193;712011;-83
2022/05/26 12:36:22;;;;;;;2.50;1.57;;;;;;;;;;713240;193;656472;-82
2022/05/26 12:38:50;;;;;;;5.03;2.17;;;;;;;;;;731339;193;654931;-81
2022/05/26 12:41:16;;;;;;;4.70;2.07;;;;;;;;;;731128;193;754695;-82
2022/05/26 12:43:48;;;;;;;3.73;1.90;;;;;;;;;;727813;194;633087;-82
2022/05/26 12:46:32;;;;;;;3.23;1.80;;;;;;;;;;722308;192;640971;-83
2022/05/26 12:49:04;;;;;;;2.27;1.30;;;;;;;;;;724297;193;613413;-82
2022/05/26 12:51:30;;;;;;;5.23;1.70;;;;;;;;;;725310;194;634116;-83
2022/05/26 12:53:56;;;;;;;4.93;1.50;;;;;;;;;;730132;194;680214;-84
2022/05/26 12:56:24;;;;;;;2.43;1.47;;;;;;;;;;724520;194;902103;-84
2022/05/26 12:58:48;;;;;;;3.43;1.50;;;;;;;;;;724110;193;658804;-81
2022/05/26 13:01:14;;;;;;;3.40;1.63;;;;;;;;;;724909;194;638163;-82
2022/05/26 13:03:45;;;;;;;7.50;1.90;;;;;;;;;;722429;193;841480;-82
2022/05/26 13:06:12;;;;;;;4.00;1.30;;;;;;;;;;724840;194;732005;-82
2022/05/26 13:08:40;;;;;;;2.13;1.20;;;;;;;;;;724119;194;831275;-83
2022/05/26 13:11:07;;;;;;;5.00;2.43;;;;;;;;;;727141;193;662511;-84
2022/05/26 13:13:34;;;;;;;2.80;1.53;;;;;;;;;;724454;194;625370;-84
2022/05/26 13:16:05;;;;;;;3.93;1.80;;;;;;;;;;720459;193;708778;-85
2022/05/26 13:18:31;;;;;;;2.77;1.33;;;;;;;;;;721958;193;624469;-82
2022/05/26 13:20:57;;;;;;;4.20;1.50;;;;;;;;;;726081;195;664564;-82
2022/05/26 13:23:25;;;;;;;3.73;1.33;;;;;;;;;;724718;194;633377;-83
2022/05/26 13:25:51;;;;;;;4.10;1.50;;;;;;;;;;725143;194;633898;-81
2022/05/26 13:28:17;;;;;;;8.57;1.97;;;;;;;;;;725379;193;627184;-83
2022/05/26 13:33:14;;;;;;;5.03;1.40;;;;;;;;;;725296;194;659609;-82
2022/05/26 13:35:40;;;;;;;2.13;1.13;;;;;;;;;;724359;193;652056;-84
2022/05/26 13:38:06;;;;;;;3.97;1.67;;;;;;;;;;725182;193;634072;-83
2022/05/26 13:40:32;;;;;;;2.70;1.40;;;;;;;;;;720065;193;825418;-83
2022/05/26 13:42:58;;;;;;;2.13;1.30;;;;;;;;;;720687;194;641800;-84
2022/05/26 13:45:24;;;;;;;2.20;1.47;;;;;;;;;;718155;194;814908;-83
2022/05/26 13:47:50;;;;;;;9.30;1.50;;;;;;;;;;723638;194;652533;-82
2022/05/26 13:50:15;;;;;;;3.03;1.50;;;;;;;;;;725722;194;634391;-83
2022/05/26 13:52:41;;;;;;;2.20;1.13;;;;;;;;;;723109;194;654576;-84
2022/05/26 13:55:13;;;;;;;4.43;1.27;;;;;;;;;;726533;194;634236;-84
2022/05/26 13:57:40;;;;;;;2.77;1.50;;;;;;;;;;725284;193;706607;-86
2022/05/26 14:00:06;;;;;;;4.63;1.53;;;;;;;;;;727207;193;652623;-82
2022/05/26 14:02:32;;;;;;;2.57;1.57;;;;;;;;;;725084;194;656059;-83
2022/05/26 14:04:59;;;;;;;3.30;1.60;;;;;;;;;;723254;194;633623;-85
2022/05/26 14:07:28;;;;;;;2.33;1.40;;;;;;;;;;724925;194;712226;-83
2022/05/26 14:09:58;;;;;;;4.30;1.33;;;;;;;;;;722550;193;624336;-84
2022/05/26 14:12:24;;;;;;;6.20;1.50;;;;;;;;;;726945;193;637398;-83
2022/05/26 14:14:50;;;;;;;2.47;1.20;;;;;;;;;;725116;194;626147;-82
2022/05/26 14:17:21;;;;;;;2.90;1.50;;;;;;;;;;721779;193;636642;-84
2022/05/26 14:19:47;;;;;;;4.40;1.40;;;;;;;;;;721110;195;636561;-83
2022/05/26 14:22:13;;;;;;;3.80;1.20;;;;;;;;;;725509;193;633623;-84
2022/05/26 14:24:39;;;;;;;3.20;1.50;;;;;;;;;;721968;195;614128;-82
2022/05/26 14:27:11;;;;;;;4.00;1.50;;;;;;;;;;723513;194;725795;-85
2022/05/26 14:29:36;;;;;;;2.07;1.20;;;;;;;;;;724696;193;644396;-83
2022/05/26 14:32:09;;;;;;;3.50;1.20;;;;;;;;;;724741;194;647014;-82
2022/05/26 14:34:36;;;;;;;2.80;1.17;;;;;;;;;;722892;194;645102;-82
2022/05/26 14:37:02;;;;;;;9.17;1.50;;;;;;;;;;724656;194;639292;-79
2022/05/26 14:39:27;;;;;;;4.10;1.37;;;;;;;;;;724385;194;826117;-80
2022/05/26 14:41:53;;;;;;;3.50;1.60;;;;;;;;;;723032;194;637124;-83
2022/05/26 14:44:20;;;;;;;4.43;1.77;;;;;;;;;;723436;194;636076;-82
2022/05/26 14:46:46;;;;;;;2.20;1.13;;;;;;;;;;722213;194;1021997;-82
2022/05/26 14:49:12;;;;;;;6.23;1.20;;;;;;;;;;728898;193;626120;-84
2022/05/26 14:51:38;;;;;;;3.10;1.20;;;;;;;;;;724245;194;647343;-82
2022/05/26 14:56:35;;;;;;;2.30;1.17;;;;;;;;;;725024;193;670663;-82
2022/05/26 14:59:01;;;;;;;3.37;1.30;;;;;;;;;;724218;194;693241;-82
2022/05/26 15:01:27;;;;;;;3.80;1.30;;;;;;;;;;725162;192;634941;-83
2022/05/26 15:03:53;;;;;;;3.97;1.50;;;;;;;;;;724715;194;675879;-81